Reisterstown, Maryland
Current Conditions -  °F | °C
As of 1:10 PM on Friday 19 Dec 2014 (Local Time) from KDMW Reporting Station
Overcast Overcast  
Wind Chill: 31°   Ceiling: 3200
Heat Index: 37°   Visibility: 10mi
Dew Point: 23°   Wind: 8mph
Humidity: 56%   Direction: 310°NW
Pressure: 30.09"   Gusts: 17mph
Location:  39.46°N, 76.83°W
Report Text: KDMW 191810Z AUTO 31007G15KT 10SM OVC032 03/M05 A3009 RMK AO2
Loading
Personal Weather Stations






























Interactive Weather Map New forecast layout! Learn more

10-Day Weather Forecast

Advertisements
Track Severe Weather on mobile